Time;durP1;ratioP1;P1;durP2;ratioP2;P2;SDS_P1;SDS_P2;PMS_P1;PMS_P2;Temp;Humidity;BMP_temperature;BMP_pressure;BME280_temperature;BME280_humidity;BME280_pressure;Samples;Min_cycle;Max_cycle;Signal;HPM_P1;HPM_P2
2021/01/18 00:02:00;;;;;;;9.70;4.70;;;;;;;2.26;nan;97155.75;4962250;28;20209;-71
2021/01/18 00:04:27;;;;;;;6.95;4.35;;;;;;;2.28;nan;97155.75;4962375;28;20222;-71
2021/01/18 00:06:54;;;;;;;11.80;5.30;;;;;;;2.21;nan;97147.31;4963285;28;20379;-71
2021/01/18 00:09:20;;;;;;;11.77;4.68;;;;;;;2.23;nan;97154.97;4958814;28;20226;-71
2021/01/18 00:11:48;;;;;;;8.13;4.22;;;;;;;2.20;nan;97150.75;4966580;28;20320;-71
2021/01/18 00:14:14;;;;;;;7.15;4.47;;;;;;;2.22;nan;97154.13;4962731;28;20324;-71
2021/01/18 00:16:41;;;;;;;12.13;4.45;;;;;;;2.14;nan;97150.88;4962022;28;20595;-71
2021/01/18 00:19:09;;;;;;;9.75;4.95;;;;;;;2.15;nan;97142.28;4961508;28;20199;-71
2021/01/18 00:21:36;;;;;;;6.18;3.85;;;;;;;2.15;nan;97147.41;4955082;28;20618;-72
2021/01/18 00:24:03;;;;;;;10.75;3.50;;;;;;;2.07;nan;97154.44;4959061;28;20252;-71
2021/01/18 00:26:32;;;;;;;13.68;6.70;;;;;;;1.99;nan;97151.19;4960044;28;20521;-71
2021/01/18 00:28:59;;;;;;;16.10;6.90;;;;;;;1.96;nan;97146.13;4941887;28;621933;-71
2021/01/18 00:31:26;;;;;;;5.75;3.40;;;;;;;1.95;nan;97149.56;4963192;28;20277;-71
2021/01/18 00:33:53;;;;;;;10.80;4.45;;;;;;;1.95;nan;97144.44;4964428;28;20633;-71
2021/01/18 00:36:21;;;;;;;9.18;4.00;;;;;;;1.96;nan;97145.25;4963052;28;20297;-71
2021/01/18 00:38:47;;;;;;;3.33;2.90;;;;;;;1.92;nan;97149.59;4962544;28;20658;-69
2021/01/18 00:41:14;;;;;;;5.63;2.95;;;;;;;1.89;nan;97147.13;4960849;28;20578;-68
2021/01/18 00:43:41;;;;;;;6.53;2.20;;;;;;;1.92;nan;97146.22;4962673;28;20653;-69
2021/01/18 00:46:08;;;;;;;4.45;2.60;;;;;;;1.93;nan;97143.59;4961639;28;20567;-69
2021/01/18 00:48:34;;;;;;;3.50;2.50;;;;;;;1.93;nan;97141.03;4966958;28;20538;-70
2021/01/18 00:51:01;;;;;;;3.65;2.63;;;;;;;1.89;nan;97147.13;4960921;28;20911;-69
2021/01/18 00:53:29;;;;;;;4.65;2.70;;;;;;;1.93;nan;97145.34;4966376;28;20201;-70
2021/01/18 00:55:56;;;;;;;2.47;2.10;;;;;;;1.89;nan;97143.69;4963605;28;20844;-69
2021/01/18 00:58:23;;;;;;;4.97;2.78;;;;;;;1.88;nan;97147.13;4961930;28;20512;-69
2021/01/18 01:00:50;;;;;;;3.22;2.17;;;;;;;1.93;nan;97151.28;4961214;28;20254;-68
2021/01/18 01:03:17;;;;;;;3.63;2.13;;;;;;;1.89;nan;97151.38;4961180;28;20325;-69
2021/01/18 01:05:44;;;;;;;3.75;2.00;;;;;;;1.84;nan;97136.09;4960678;28;20296;-69
2021/01/18 01:08:10;;;;;;;5.50;1.67;;;;;;;1.92;nan;97144.47;4962066;28;20195;-68
2021/01/18 01:10:38;;;;;;;3.67;2.38;;;;;;;1.80;nan;97144.72;4961955;28;20272;-69
2021/01/18 01:13:10;;;;;;;2.03;1.65;;;;;;;1.80;nan;97147.31;4963579;28;21003;-68
2021/01/18 01:15:37;;;;;;;4.30;2.92;;;;;;;1.78;nan;97151.59;4965453;28;20222;-71
2021/01/18 01:18:04;;;;;;;3.58;2.33;;;;;;;1.80;nan;97156.69;4958139;28;20234;-68
2021/01/18 01:20:31;;;;;;;3.78;2.30;;;;;;;1.70;nan;97148.31;4955935;28;20634;-69
2021/01/18 01:22:58;;;;;;;7.03;3.20;;;;;;;1.78;nan;97150.75;4956663;28;20281;-68
2021/01/18 01:25:26;;;;;;;6.97;2.45;;;;;;;1.77;nan;97157.59;4966230;28;20850;-69
2021/01/18 01:27:54;;;;;;;9.60;2.50;;;;;;;1.76;nan;97153.34;4967392;28;20401;-69
2021/01/18 01:30:22;;;;;;;4.40;2.80;;;;;;;1.71;nan;97159.44;4960042;28;20254;-69
2021/01/18 01:32:51;;;;;;;5.70;2.47;;;;;;;1.73;nan;97157.69;4965293;28;20731;-68
2021/01/18 01:35:20;;;;;;;5.38;2.97;;;;;;;1.73;nan;97152.56;4965259;28;20617;-69
2021/01/18 01:37:48;;;;;;;7.22;3.20;;;;;;;1.76;nan;97160.22;4967476;28;20617;-68
2021/01/18 01:40:16;;;;;;;8.50;3.42;;;;;;;1.74;nan;97160.25;4962590;28;20673;-69
2021/01/18 01:42:43;;;;;;;8.40;3.50;;;;;;;1.73;nan;97162.81;4960008;28;20233;-67
2021/01/18 01:45:14;;;;;;;6.35;3.10;;;;;;;1.70;nan;97173.16;4960183;28;20714;-68
2021/01/18 01:47:42;;;;;;;6.00;3.65;;;;;;;1.69;nan;97156.91;4965649;28;20254;-69
2021/01/18 01:50:12;;;;;;;5.43;3.35;;;;;;;1.74;nan;97160.25;4965954;28;20693;-68
2021/01/18 01:52:43;;;;;;;9.38;3.88;;;;;;;1.70;nan;97168.84;4959737;28;20638;-69
2021/01/18 01:55:15;;;;;;;9.40;4.13;;;;;;;1.71;nan;97164.59;4958434;28;20234;-69
2021/01/18 01:57:42;;;;;;;13.02;4.80;;;;;;;1.72;nan;97162.00;4961691;28;20238;-69
2021/01/18 02:00:09;;;;;;;7.03;4.43;;;;;;;1.73;nan;97173.94;4960462;28;20264;-69
2021/01/18 02:02:37;;;;;;;9.45;4.70;;;;;;;1.74;nan;97172.19;4958573;28;20305;-68
2021/01/18 02:05:13;;;;;;;7.28;4.90;;;;;;;1.71;nan;97167.97;4955166;28;20739;-69
2021/01/18 02:07:40;;;;;;;14.70;5.82;;;;;;;1.69;nan;97167.16;4959386;28;20536;-68
2021/01/18 02:10:08;;;;;;;15.07;6.45;;;;;;;1.72;nan;97177.38;4961399;28;20752;-69
2021/01/18 02:12:36;;;;;;;12.77;6.13;;;;;;;1.74;nan;97178.19;4959312;28;20592;-69
2021/01/18 02:15:19;;;;;;;14.95;6.25;;;;;;;1.73;nan;97183.34;4963882;28;20779;-68
2021/01/18 02:18:14;;;;;;;9.90;6.05;;;;;;;1.73;nan;97181.63;4959956;28;20354;-70
2021/01/18 02:21:27;;;;;;;15.48;7.05;;;;;;;1.70;nan;97183.41;4961419;28;20245;-69
2021/01/18 02:24:35;;;;;;;15.93;7.00;;;;;;;1.68;nan;97188.56;4955271;28;20932;-69
2021/01/18 02:27:49;;;;;;;13.23;6.00;;;;;;;1.69;nan;97180.00;4939608;28;20314;-70
2021/01/18 02:30:31;;;;;;;18.13;6.53;;;;;;;1.68;nan;97175.72;4925620;28;20222;-68
2021/01/18 02:33:25;;;;;;;13.48;6.63;;;;;;;1.67;nan;97178.31;4956695;28;20443;-70
2021/01/18 02:36:08;;;;;;;12.57;5.25;;;;;;;1.60;nan;97177.59;4959989;28;20768;-68
2021/01/18 02:38:41;;;;;;;9.95;4.88;;;;;;;1.57;nan;97179.38;4963690;28;20646;-71
2021/01/18 02:41:14;;;;;;;22.05;9.20;;;;;;;1.58;nan;97181.91;4960512;28;20325;-68
2021/01/18 02:43:48;;;;;;;21.58;7.40;;;;;;;1.63;nan;97176.69;4961148;28;20664;-68
2021/01/18 02:46:18;;;;;;;16.13;6.05;;;;;;;1.56;nan;97198.19;4959683;28;20214;-69
2021/01/18 02:48:47;;;;;;;19.80;7.70;;;;;;;1.53;nan;97188.84;4966943;28;20207;-69
2021/01/18 02:51:18;;;;;;;12.50;7.15;;;;;;;1.56;nan;97191.34;4961964;28;20545;-68
2021/01/18 02:53:54;;;;;;;12.35;6.95;;;;;;;1.53;nan;97187.97;4963138;28;20322;-69
2021/01/18 02:56:25;;;;;;;16.17;6.80;;;;;;;1.52;nan;97194.84;4956959;28;20224;-70
2021/01/18 02:58:54;;;;;;;13.30;6.78;;;;;;;1.53;nan;97193.97;4955346;28;20601;-68
2021/01/18 03:01:36;;;;;;;19.40;7.35;;;;;;;1.55;nan;97199.91;4954182;28;20268;-69
2021/01/18 03:04:05;;;;;;;18.75;7.55;;;;;;;1.60;nan;97200.69;4959946;28;20850;-68
2021/01/18 03:06:39;;;;;;;16.08;7.32;;;;;;;1.57;nan;97203.31;4963825;28;20281;-68
2021/01/18 03:09:19;;;;;;;16.02;7.32;;;;;;;1.60;nan;97207.50;4964706;28;20677;-67
2021/01/18 03:11:49;;;;;;;19.60;7.50;;;;;;;1.58;nan;97197.31;4965312;28;20261;-69
2021/01/18 03:14:25;;;;;;;19.15;8.50;;;;;;;1.65;nan;97198.88;4966888;28;20305;-68
2021/01/18 03:16:57;;;;;;;16.73;8.18;;;;;;;1.61;nan;97198.97;4965610;28;20709;-69
2021/01/18 03:19:31;;;;;;;16.73;7.80;;;;;;;1.68;nan;97191.13;4959225;28;20230;-68
2021/01/18 03:21:59;;;;;;;14.93;6.50;;;;;;;1.62;nan;97204.06;4967303;28;20304;-71
2021/01/18 03:24:25;;;;;;;11.05;6.30;;;;;;;1.65;nan;97201.47;4960909;28;20304;-69
2021/01/18 03:26:52;;;;;;;14.10;6.82;;;;;;;1.61;nan;97202.38;4963582;28;20724;-68
2021/01/18 03:29:19;;;;;;;13.50;5.70;;;;;;;1.62;nan;97196.38;4958593;28;20251;-68
2021/01/18 03:31:46;;;;;;;13.98;4.85;;;;;;;1.62;nan;97196.38;4961772;28;20617;-68
2021/01/18 03:34:13;;;;;;;13.90;5.53;;;;;;;1.63;nan;97198.03;4955137;28;20252;-70
2021/01/18 03:36:40;;;;;;;11.68;6.30;;;;;;;1.60;nan;97205.81;4955597;28;20195;-69
2021/01/18 03:39:07;;;;;;;16.60;6.38;;;;;;;1.63;nan;97204.91;4954418;28;20557;-70
2021/01/18 03:41:34;;;;;;;12.45;6.47;;;;;;;1.63;nan;97198.03;4956527;28;20236;-69
2021/01/18 03:44:01;;;;;;;13.55;6.10;;;;;;;1.58;nan;97199.88;4958710;28;20202;-69
2021/01/18 03:46:28;;;;;;;11.65;5.03;;;;;;;1.62;nan;97203.22;4958088;28;20772;-69
2021/01/18 03:48:55;;;;;;;12.90;6.82;;;;;;;1.60;nan;97194.69;4958762;28;20198;-69
2021/01/18 03:51:21;;;;;;;8.00;5.50;;;;;;;1.57;nan;97198.19;4959901;28;20733;-70
2021/01/18 03:53:48;;;;;;;8.93;4.88;;;;;;;1.58;nan;97199.88;4960362;28;20282;-69
2021/01/18 03:56:16;;;;;;;13.30;6.07;;;;;;;1.58;nan;97194.75;4962098;28;20625;-69
2021/01/18 03:58:43;;;;;;;16.77;5.65;;;;;;;1.61;nan;97198.97;4963370;28;20773;-70
2021/01/18 04:01:10;;;;;;;18.45;6.35;;;;;;;1.57;nan;97198.19;4962458;28;20277;-70
2021/01/18 04:03:50;;;;;;;15.77;6.68;;;;;;;1.64;nan;97202.31;4959809;28;20558;-70
2021/01/18 04:06:17;;;;;;;14.23;5.40;;;;;;;1.64;nan;97198.91;4963892;28;20540;-70
2021/01/18 04:08:44;;;;;;;13.60;6.10;;;;;;;1.64;nan;97194.59;4963823;28;20258;-68
2021/01/18 04:11:11;;;;;;;15.82;5.78;;;;;;;1.66;nan;97198.00;4962718;28;20709;-68
2021/01/18 04:13:39;;;;;;;17.92;6.80;;;;;;;1.66;nan;97190.31;4970330;28;20306;-68
2021/01/18 04:16:06;;;;;;;10.85;5.20;;;;;;;1.65;nan;97200.59;4965768;28;20700;-69
2021/01/18 04:18:33;;;;;;;10.25;4.85;;;;;;;1.63;nan;97195.47;4958348;28;20755;-67
2021/01/18 04:21:00;;;;;;;11.60;5.57;;;;;;;1.60;nan;97195.56;4957250;28;20310;-69
2021/01/18 04:23:27;;;;;;;13.43;5.47;;;;;;;1.60;nan;97193.00;4959632;28;20206;-68
2021/01/18 04:25:54;;;;;;;8.73;5.28;;;;;;;1.61;nan;97201.53;4960286;28;20283;-70
2021/01/18 04:28:21;;;;;;;10.85;5.22;;;;;;;1.62;nan;97208.34;4961138;28;20334;-68
2021/01/18 04:30:49;;;;;;;11.20;4.70;;;;;;;1.59;nan;97211.81;4961565;28;20320;-67
2021/01/18 04:33:16;;;;;;;11.57;5.63;;;;;;;1.62;nan;97218.63;4962943;28;20194;-68
2021/01/18 04:35:43;;;;;;;11.13;5.82;;;;;;;1.69;nan;97208.22;4960321;28;20289;-69
2021/01/18 04:38:09;;;;;;;13.38;4.97;;;;;;;1.75;nan;97202.97;4962197;28;20314;-68
2021/01/18 04:40:36;;;;;;;7.28;4.28;;;;;;;1.78;nan;97202.06;4957270;28;20985;-69
2021/01/18 04:43:03;;;;;;;9.77;3.38;;;;;;;1.66;nan;97192.88;4960014;28;20899;-69
2021/01/18 04:45:31;;;;;;;11.93;4.40;;;;;;;1.72;nan;97195.34;4961085;28;20230;-67
2021/01/18 04:47:59;;;;;;;7.90;4.18;;;;;;;1.74;nan;97201.28;4963056;28;20289;-67
2021/01/18 04:50:28;;;;;;;20.95;4.93;;;;;;;1.79;nan;97204.63;4967212;28;20634;-68
2021/01/18 04:52:56;;;;;;;11.65;4.45;;;;;;;1.73;nan;97197.03;4967507;28;20845;-67
2021/01/18 04:55:31;;;;;;;8.63;4.45;;;;;;;1.69;nan;97200.50;4961665;28;20900;-67
2021/01/18 04:58:09;;;;;;;7.47;4.22;;;;;;;1.73;nan;97199.59;4972308;28;20276;-68
2021/01/18 05:00:41;;;;;;;13.60;4.70;;;;;;;1.75;nan;97202.97;4958578;28;20543;-67
2021/01/18 05:03:11;;;;;;;11.88;4.47;;;;;;;1.61;nan;97199.81;4970990;28;20811;-68
2021/01/18 05:06:05;;;;;;;13.40;4.28;;;;;;;1.65;nan;97200.59;4961381;28;20230;-67
2021/01/18 05:09:01;;;;;;;17.23;5.32;;;;;;;1.61;nan;97212.63;4959989;28;20661;-67
2021/01/18 05:11:28;;;;;;;14.75;4.85;;;;;;;1.64;nan;97215.13;4961012;28;20301;-68
2021/01/18 05:14:00;;;;;;;11.50;4.03;;;;;;;1.63;nan;97212.59;4963899;28;20585;-71
2021/01/18 05:16:33;;;;;;;17.95;4.75;;;;;;;1.64;nan;97207.44;4965968;28;20285;-68
2021/01/18 05:19:07;;;;;;;9.52;3.72;;;;;;;1.63;nan;97198.03;4967052;28;20194;-68
2021/01/18 05:21:34;;;;;;;16.65;4.47;;;;;;;1.64;nan;97204.88;4965839;28;20315;-67
2021/01/18 05:24:01;;;;;;;8.77;4.18;;;;;;;1.65;nan;97201.47;4961585;28;20658;-68
2021/01/18 05:26:29;;;;;;;10.38;4.40;;;;;;;1.71;nan;97203.88;4964988;28;20582;-68
2021/01/18 05:28:56;;;;;;;14.35;5.13;;;;;;;1.72;nan;97200.47;4960749;28;20266;-70
2021/01/18 05:31:34;;;;;;;8.88;4.32;;;;;;;1.67;nan;97212.53;4960898;28;20289;-68
2021/01/18 05:34:04;;;;;;;12.10;4.90;;;;;;;1.66;nan;97215.09;4962341;28;20807;-68
2021/01/18 05:36:38;;;;;;;10.20;4.82;;;;;;;1.66;nan;97213.41;4965046;28;20381;-68
2021/01/18 05:39:10;;;;;;;10.65;5.47;;;;;;;1.61;nan;97209.22;4961328;28;20755;-68
2021/01/18 05:41:37;;;;;;;9.45;5.35;;;;;;;1.61;nan;97212.63;4962289;28;20285;-68
2021/01/18 05:44:05;;;;;;;13.95;5.05;;;;;;;1.62;nan;97216.88;4955171;28;20286;-68
2021/01/18 05:46:38;;;;;;;12.20;4.10;;;;;;;1.51;nan;97228.19;4956247;28;20249;-66
2021/01/18 05:49:12;;;;;;;11.13;4.38;;;;;;;1.46;nan;97225.72;4958533;28;20269;-67
2021/01/18 05:51:50;;;;;;;9.38;5.13;;;;;;;1.48;nan;97231.66;4962580;28;20230;-67
2021/01/18 05:54:22;;;;;;;9.40;4.18;;;;;;;1.49;nan;97238.47;4956939;28;20680;-67
2021/01/18 05:56:52;;;;;;;14.85;4.32;;;;;;;1.48;nan;97241.09;4967489;28;20186;-68
2021/01/18 05:59:21;;;;;;;6.25;4.28;;;;;;;1.49;nan;97247.91;4964758;28;20827;-68
2021/01/18 06:01:49;;;;;;;9.20;4.35;;;;;;;1.57;nan;97244.34;4961449;28;20673;-68
2021/01/18 06:04:18;;;;;;;10.50;4.22;;;;;;;1.65;nan;97255.31;4961030;28;20273;-68
2021/01/18 06:06:53;;;;;;;11.60;4.75;;;;;;;1.56;nan;97250.31;4962280;28;20700;-68
2021/01/18 06:09:21;;;;;;;7.82;4.40;;;;;;;1.50;nan;97253.00;4954659;28;20297;-69
2021/01/18 06:11:48;;;;;;;14.18;3.85;;;;;;;1.49;nan;97271.81;4957928;28;20202;-69
2021/01/18 06:14:18;;;;;;;18.73;8.75;;;;;;;1.51;nan;97277.78;4958575;28;20731;-68
2021/01/18 06:16:47;;;;;;;12.50;7.93;;;;;;;1.60;nan;97277.63;4966320;28;20285;-68
2021/01/18 06:19:21;;;;;;;11.30;5.30;;;;;;;1.71;nan;97282.59;4958960;28;20310;-68
2021/01/18 06:21:48;;;;;;;10.63;5.63;;;;;;;1.76;nan;97276.50;4962268;28;20531;-69
2021/01/18 06:24:17;;;;;;;10.23;4.45;;;;;;;1.75;nan;97279.94;4961565;28;20593;-69
2021/01/18 06:26:45;;;;;;;14.70;4.95;;;;;;;1.78;nan;97281.59;4959354;28;20233;-68
2021/01/18 06:29:33;;;;;;;12.45;5.32;;;;;;;1.61;nan;97287.00;4961238;28;20318;-69
2021/01/18 06:31:59;;;;;;;12.77;5.15;;;;;;;1.64;nan;97284.38;4968013;28;20289;-69
2021/01/18 06:34:28;;;;;;;12.07;4.80;;;;;;;1.58;nan;97284.50;4965908;28;20581;-69
2021/01/18 06:36:56;;;;;;;9.27;4.85;;;;;;;1.52;nan;97284.59;4966603;28;20229;-69
2021/01/18 06:39:28;;;;;;;9.32;5.20;;;;;;;1.47;nan;97275.28;4961880;28;20482;-69
2021/01/18 06:41:57;;;;;;;12.35;5.75;;;;;;;1.48;nan;97284.69;4963678;28;20578;-68
2021/01/18 06:44:38;;;;;;;20.30;8.50;;;;;;;1.37;nan;97287.41;4962194;28;20310;-68
2021/01/18 06:47:26;;;;;;;10.73;5.28;;;;;;;1.31;nan;97287.50;4960537;28;20197;-68
2021/01/18 06:50:00;;;;;;;15.48;6.35;;;;;;;1.34;nan;97281.47;4965059;28;20771;-69
2021/01/18 06:52:29;;;;;;;10.13;5.68;;;;;;;1.29;nan;97276.41;4961670;28;20656;-69
2021/01/18 06:55:00;;;;;;;10.85;5.53;;;;;;;1.32;nan;97284.06;4965799;28;20297;-69
2021/01/18 06:58:03;;;;;;;14.30;4.75;;;;;;;1.51;nan;97288.03;4961448;28;20281;-68
2021/01/18 07:00:30;;;;;;;7.40;4.15;;;;;;;1.49;nan;97282.06;4941422;28;20248;-71
2021/01/18 07:02:58;;;;;;;6.88;3.97;;;;;;;1.59;nan;97291.31;4960918;28;20198;-68
2021/01/18 07:05:37;;;;;;;6.32;3.70;;;;;;;1.63;nan;97300.66;4958000;28;20301;-69
2021/01/18 07:08:13;;;;;;;14.48;7.50;;;;;;;1.61;nan;97301.56;4966765;28;20661;-69
2021/01/18 07:10:43;;;;;;;13.13;5.55;;;;;;;1.61;nan;97304.13;4958745;28;20613;-69
2021/01/18 07:13:10;;;;;;;13.88;5.47;;;;;;;1.56;nan;97299.06;4961590;28;20237;-69
2021/01/18 07:15:44;;;;;;;13.15;4.50;;;;;;;1.68;nan;97309.13;4962224;28;20246;-69
2021/01/18 07:18:12;;;;;;;7.50;4.40;;;;;;;1.80;nan;97303.81;4966594;28;20244;-70
2021/01/18 07:20:43;;;;;;;14.45;7.68;;;;;;;1.89;nan;97308.78;4972375;28;20296;-69
2021/01/18 07:23:31;;;;;;;14.23;5.63;;;;;;;1.85;nan;97307.13;4961010;28;20586;-70
2021/01/18 07:26:24;;;;;;;10.18;4.75;;;;;;;1.87;nan;97313.09;4963292;28;20700;-68
2021/01/18 07:28:55;;;;;;;16.98;7.80;;;;;;;1.90;nan;97320.72;4962867;28;20633;-70
2021/01/18 07:31:24;;;;;;;14.25;6.38;;;;;;;1.93;nan;97319.84;4963864;28;20206;-69
2021/01/18 07:33:51;;;;;;;18.98;6.13;;;;;;;1.96;nan;97320.63;4966651;28;20503;-69
2021/01/18 07:36:27;;;;;;;9.52;4.88;;;;;;;2.04;nan;97326.47;4963675;28;20198;-68
2021/01/18 07:39:02;;;;;;;10.80;4.78;;;;;;;1.91;nan;97317.28;4964421;28;20249;-69
2021/01/18 07:41:39;;;;;;;7.97;3.67;;;;;;;1.72;nan;97310.78;4968928;28;20712;-69
2021/01/18 07:44:36;;;;;;;5.47;3.92;;;;;;;1.90;nan;97330.13;4966434;28;20292;-69
2021/01/18 07:47:06;;;;;;;15.48;3.70;;;;;;;1.99;nan;97341.09;4963938;28;20429;-68
2021/01/18 07:49:36;;;;;;;9.07;3.72;;;;;;;1.97;nan;97340.28;4958279;28;20253;-68
2021/01/18 07:52:24;;;;;;;7.85;3.65;;;;;;;2.02;nan;97348.75;4971709;28;20352;-68
2021/01/18 07:54:51;;;;;;;7.53;3.50;;;;;;;2.14;nan;97350.28;4966721;28;20737;-69
2021/01/18 07:57:38;;;;;;;13.43;4.60;;;;;;;2.20;nan;97351.00;4965075;28;20296;-69
2021/01/18 08:00:31;;;;;;;6.30;3.90;;;;;;;2.19;nan;97348.47;4957898;28;20222;-68
2021/01/18 08:03:25;;;;;;;11.00;5.53;;;;;;;2.22;nan;97354.38;4961444;28;20899;-69
2021/01/18 08:06:02;;;;;;;18.27;4.80;;;;;;;2.21;nan;97360.41;4964469;28;20312;-68
2021/01/18 08:08:30;;;;;;;8.88;4.47;;;;;;;2.20;nan;97358.72;4961836;28;20784;-68
2021/01/18 08:10:59;;;;;;;7.43;4.50;;;;;;;2.23;nan;97360.38;4965865;28;20878;-69
2021/01/18 08:13:43;;;;;;;12.65;4.30;;;;;;;2.25;nan;97358.63;4961827;28;20329;-69
2021/01/18 08:16:25;;;;;;;9.05;4.20;;;;;;;2.26;nan;97361.19;4968065;28;20297;-69
2021/01/18 08:19:13;;;;;;;15.90;4.40;;;;;;;2.19;nan;97369.84;4964036;28;20513;-68
2021/01/18 08:22:10;;;;;;;8.32;4.85;;;;;;;2.26;nan;97368.88;4964816;28;20300;-68
2021/01/18 08:24:54;;;;;;;15.25;4.40;;;;;;;2.33;nan;97373.03;4957622;28;20250;-69
2021/01/18 08:28:01;;;;;;;8.27;5.03;;;;;;;2.19;nan;97359.59;4964571;28;20603;-69
2021/01/18 08:30:31;;;;;;;9.35;3.95;;;;;;;2.23;nan;97373.22;4958263;28;20897;-69
2021/01/18 08:32:59;;;;;;;15.13;5.80;;;;;;;2.22;nan;97369.78;4957364;28;20640;-71
2021/01/18 08:35:44;;;;;;;12.57;4.60;;;;;;;2.14;nan;97366.50;4958971;28;20685;-69
2021/01/18 08:38:21;;;;;;;15.02;6.43;;;;;;;2.20;nan;97355.31;4963519;28;20230;-68
2021/01/18 08:40:50;;;;;;;9.23;5.47;;;;;;;2.27;nan;97356.91;4964954;28;20316;-69
2021/01/18 08:43:19;;;;;;;7.78;4.63;;;;;;;2.32;nan;97353.38;4967728;28;20672;-69
2021/01/18 08:45:47;;;;;;;15.68;6.13;;;;;;;2.40;nan;97358.34;4960470;28;20223;-69
2021/01/18 08:48:16;;;;;;;13.95;6.93;;;;;;;2.37;nan;97369.53;4962151;28;20826;-68
2021/01/18 08:50:48;;;;;;;11.82;5.85;;;;;;;2.36;nan;97365.25;4964460;28;20276;-68
2021/01/18 08:53:32;;;;;;;17.08;5.38;;;;;;;2.48;nan;97377.91;4963875;28;20634;-68
2021/01/18 08:56:05;;;;;;;6.35;4.25;;;;;;;2.45;nan;97367.69;4971086;28;20673;-68
2021/01/18 08:58:42;;;;;;;6.20;3.10;;;;;;;2.35;nan;97366.13;4960651;28;20191;-68
2021/01/18 09:01:18;;;;;;;6.80;3.60;;;;;;;2.35;nan;97376.41;4962872;28;20301;-68
2021/01/18 09:03:46;;;;;;;3.38;2.63;;;;;;;2.36;nan;97372.13;4967704;28;20612;-68
2021/01/18 09:06:13;;;;;;;7.00;2.97;;;;;;;2.41;nan;97376.31;4961698;28;20313;-68
2021/01/18 09:08:40;;;;;;;6.55;4.45;;;;;;;2.53;nan;97373.53;4966635;28;20557;-69
2021/01/18 09:11:11;;;;;;;4.53;3.28;;;;;;;2.51;nan;97382.97;4961499;28;20740;-69
2021/01/18 09:13:39;;;;;;;6.05;3.10;;;;;;;2.52;nan;97369.28;4967328;28;20202;-68
2021/01/18 09:16:08;;;;;;;4.72;3.20;;;;;;;2.54;nan;97372.66;4972064;28;20519;-69
2021/01/18 09:18:36;;;;;;;16.65;6.25;;;;;;;2.54;nan;97371.78;4966611;28;20590;-69
2021/01/18 09:21:07;;;;;;;6.35;3.00;;;;;;;2.37;nan;97369.53;4972866;28;20288;-67
2021/01/18 09:23:34;;;;;;;7.60;3.55;;;;;;;2.34;nan;97368.72;4965810;28;20198;-69
2021/01/18 09:26:07;;;;;;;4.85;2.75;;;;;;;2.32;nan;97371.34;4967903;28;20700;-70
2021/01/18 09:28:35;;;;;;;6.70;3.35;;;;;;;2.34;nan;97373.88;4963452;28;20436;-70
2021/01/18 09:31:11;;;;;;;7.07;4.22;;;;;;;2.33;nan;97373.03;4963185;28;20328;-68
2021/01/18 09:33:39;;;;;;;14.43;3.58;;;;;;;2.37;nan;97384.94;4959940;28;20268;-67
2021/01/18 09:36:11;;;;;;;6.18;3.03;;;;;;;2.38;nan;97381.50;4963720;28;20273;-71
2021/01/18 09:38:39;;;;;;;9.07;3.35;;;;;;;2.28;nan;97367.13;4963594;28;20517;-68
2021/01/18 09:41:06;;;;;;;7.05;3.45;;;;;;;2.42;nan;97385.72;4974738;28;20736;-68
2021/01/18 09:43:35;;;;;;;6.45;3.00;;;;;;;2.43;nan;97379.69;4961468;28;20524;-67
2021/01/18 09:46:02;;;;;;;6.47;3.58;;;;;;;2.46;nan;97377.09;4959983;28;20236;-68
2021/01/18 09:48:31;;;;;;;7.22;3.25;;;;;;;2.48;nan;97371.91;4963187;28;20623;-67
2021/01/18 09:51:01;;;;;;;7.70;2.70;;;;;;;2.47;nan;97386.47;4974000;28;20238;-68
2021/01/18 09:53:35;;;;;;;8.25;3.47;;;;;;;2.47;nan;97377.91;4964450;28;20609;-68
2021/01/18 09:56:03;;;;;;;4.25;2.67;;;;;;;2.50;nan;97375.31;4965302;28;20307;-67
2021/01/18 09:58:36;;;;;;;4.30;2.70;;;;;;;2.54;nan;97377.78;4966551;28;20250;-68
2021/01/18 10:01:08;;;;;;;14.32;3.80;;;;;;;2.57;nan;97372.59;4963063;28;20321;-68
2021/01/18 10:03:36;;;;;;;9.68;3.08;;;;;;;2.61;nan;97363.97;4968340;28;20206;-70
2021/01/18 10:06:09;;;;;;;5.25;3.40;;;;;;;2.63;nan;97372.47;4963316;28;20249;-69
2021/01/18 10:08:39;;;;;;;11.98;3.85;;;;;;;2.77;nan;97367.94;4965020;28;20716;-68
2021/01/18 10:11:06;;;;;;;7.03;3.78;;;;;;;2.86;nan;97354.06;4960765;28;20759;-68
2021/01/18 10:13:34;;;;;;;8.95;5.55;;;;;;;2.98;nan;97352.06;4956370;28;20226;-68
2021/01/18 10:16:10;;;;;;;13.57;4.10;;;;;;;3.12;nan;97352.66;4961848;28;20293;-69
2021/01/18 10:18:40;;;;;;;9.10;2.80;;;;;;;3.21;nan;97351.59;4956600;28;20230;-69
2021/01/18 10:21:08;;;;;;;33.75;11.52;;;;;;;3.22;nan;97355.88;4960054;28;20217;-69
2021/01/18 10:23:37;;;;;;;21.00;7.78;;;;;;;3.35;nan;97350.44;4964703;28;20522;-70
2021/01/18 10:26:22;;;;;;;6.18;3.72;;;;;;;3.33;nan;97346.19;4955678;28;20235;-69
2021/01/18 10:28:57;;;;;;;10.10;3.40;;;;;;;3.31;nan;97343.63;4965397;28;20279;-68
2021/01/18 10:31:27;;;;;;;14.38;4.40;;;;;;;3.37;nan;97335.78;4960688;28;20233;-72
2021/01/18 10:34:16;;;;;;;10.07;4.85;;;;;;;3.49;nan;97343.25;4963194;28;20199;-69
2021/01/18 10:36:46;;;;;;;22.20;10.23;;;;;;;3.41;nan;97339.16;4967721;28;20590;-70
2021/01/18 10:39:29;;;;;;;17.60;6.65;;;;;;;3.38;nan;97337.47;4963699;28;20770;-69
2021/01/18 10:42:05;;;;;;;6.75;3.13;;;;;;;3.28;nan;97341.16;4963173;28;20206;-69
2021/01/18 10:44:34;;;;;;;13.98;2.70;;;;;;;3.30;nan;97336.81;4960465;28;20229;-71
2021/01/18 10:47:02;;;;;;;6.88;3.13;;;;;;;3.27;nan;97336.03;4961052;28;20198;-69
2021/01/18 10:49:34;;;;;;;5.82;2.47;;;;;;;3.31;nan;97342.81;4965185;28;20584;-69
2021/01/18 10:52:06;;;;;;;4.00;2.28;;;;;;;3.29;nan;97337.69;4966073;28;20203;-69
2021/01/18 10:54:33;;;;;;;5.60;3.22;;;;;;;3.26;nan;97337.78;4956933;28;20328;-70
2021/01/18 10:57:01;;;;;;;9.48;3.22;;;;;;;3.25;nan;97343.81;4960384;28;20600;-71
2021/01/18 10:59:29;;;;;;;5.88;2.60;;;;;;;3.24;nan;97330.97;4963272;28;20586;-72
2021/01/18 11:02:03;;;;;;;7.80;2.97;;;;;;;3.31;nan;97343.63;4964483;28;20239;-72
2021/01/18 11:04:33;;;;;;;5.90;2.92;;;;;;;3.38;nan;97340.06;4968062;28;20292;-72
2021/01/18 11:07:00;;;;;;;5.95;3.47;;;;;;;3.33;nan;97341.91;4967194;28;20369;-72
2021/01/18 11:09:31;;;;;;;8.27;2.38;;;;;;;3.39;nan;97335.78;4962493;28;20274;-72
2021/01/18 11:12:00;;;;;;;2.42;1.75;;;;;;;3.49;nan;97340.69;4972254;28;20234;-72
2021/01/18 11:14:28;;;;;;;11.30;1.83;;;;;;;3.47;nan;97341.59;4969711;28;20757;-72
2021/01/18 11:16:56;;;;;;;9.02;1.90;;;;;;;3.52;nan;97338.03;4968480;28;20200;-72
2021/01/18 11:19:25;;;;;;;2.95;1.52;;;;;;;3.40;nan;97333.19;4970005;28;20221;-71
2021/01/18 11:21:52;;;;;;;7.10;2.40;;;;;;;3.45;nan;97333.91;4963953;28;20984;-72
2021/01/18 11:24:19;;;;;;;7.85;2.05;;;;;;;3.44;nan;97329.63;4972541;28;20241;-71
2021/01/18 11:26:51;;;;;;;5.68;2.47;;;;;;;3.50;nan;97337.22;4962940;28;20248;-72
2021/01/18 11:29:18;;;;;;;2.75;1.92;;;;;;;3.53;nan;97334.56;4961420;28;20656;-73
2021/01/18 11:31:46;;;;;;;8.05;2.10;;;;;;;3.54;nan;97328.53;4962491;28;20269;-72
2021/01/18 11:34:13;;;;;;;4.07;1.52;;;;;;;3.43;nan;97322.81;4964556;28;20570;-72
2021/01/18 11:36:42;;;;;;;6.43;2.10;;;;;;;3.52;nan;97317.44;4966017;28;20194;-72
2021/01/18 11:39:10;;;;;;;8.35;1.80;;;;;;;3.44;nan;97309.06;4963765;28;20230;-72
2021/01/18 11:41:38;;;;;;;7.85;2.17;;;;;;;3.49;nan;97317.53;4969207;28;20564;-72
2021/01/18 11:44:06;;;;;;;4.10;1.90;;;;;;;3.54;nan;97315.66;4961561;28;20293;-71
2021/01/18 11:46:34;;;;;;;11.48;3.92;;;;;;;3.61;nan;97309.50;4958636;28;20680;-72
2021/01/18 11:49:02;;;;;;;14.60;1.48;;;;;;;3.50;nan;97314.06;4962191;28;20650;-72
2021/01/18 11:51:29;;;;;;;7.72;1.83;;;;;;;3.52;nan;97307.16;4962729;28;20207;-72
2021/01/18 11:53:57;;;;;;;5.13;2.20;;;;;;;3.64;nan;97312.03;4965000;28;20634;-72
2021/01/18 11:56:29;;;;;;;4.18;1.67;;;;;;;3.69;nan;97310.19;4964895;28;20228;-72
2021/01/18 11:58:56;;;;;;;2.78;1.63;;;;;;;3.73;nan;97311.78;4966500;28;20198;-71
2021/01/18 12:01:23;;;;;;;7.85;1.42;;;;;;;3.81;nan;97309.88;4967385;28;20567;-71
2021/01/18 12:03:50;;;;;;;7.70;2.22;;;;;;;3.78;nan;97312.53;4966042;28;20229;-72
2021/01/18 12:06:16;;;;;;;3.47;1.70;;;;;;;3.73;nan;97305.78;4964295;28;20297;-72
2021/01/18 12:08:43;;;;;;;2.78;1.70;;;;;;;3.71;nan;97308.41;4965871;28;20613;-72
2021/01/18 12:11:11;;;;;;;3.92;1.27;;;;;;;3.71;nan;97298.13;4965379;28;20231;-72
2021/01/18 12:13:38;;;;;;;4.95;1.35;;;;;;;3.61;nan;97296.63;4962140;28;20196;-71
2021/01/18 12:16:05;;;;;;;4.53;1.75;;;;;;;3.73;nan;97298.06;4967333;28;20518;-72